sensor_id;sensor_type;location;lat;lon;timestamp;P1;durP1;ratioP1;P2;durP2;ratioP2
67867;SDS011;54672;46.096;14.470;2023-11-19T00:01:26;30.02;;;13.10;;
67867;SDS011;54672;46.096;14.470;2023-11-19T00:03:51;30.35;;;11.50;;
67867;SDS011;54672;46.096;14.470;2023-11-19T00:06:18;30.58;;;12.23;;
67867;SDS011;54672;46.096;14.470;2023-11-19T00:08:44;33.28;;;12.73;;
67867;SDS011;54672;46.096;14.470;2023-11-19T00:11:09;30.00;;;12.35;;
67867;SDS011;54672;46.096;14.470;2023-11-19T00:13:34;35.30;;;13.68;;
67867;SDS011;54672;46.096;14.470;2023-11-19T00:16:00;39.25;;;14.77;;
67867;SDS011;54672;46.096;14.470;2023-11-19T00:18:25;41.47;;;15.07;;
67867;SDS011;54672;46.096;14.470;2023-11-19T00:20:51;31.30;;;14.18;;
67867;SDS011;54672;46.096;14.470;2023-11-19T00:23:16;36.58;;;13.68;;
67867;SDS011;54672;46.096;14.470;2023-11-19T00:25:42;27.52;;;13.48;;
67867;SDS011;54672;46.096;14.470;2023-11-19T00:28:07;36.25;;;14.02;;
67867;SDS011;54672;46.096;14.470;2023-11-19T00:30:33;43.97;;;14.38;;
67867;SDS011;54672;46.096;14.470;2023-11-19T00:32:58;40.05;;;14.77;;
67867;SDS011;54672;46.096;14.470;2023-11-19T00:35:23;34.53;;;13.45;;
67867;SDS011;54672;46.096;14.470;2023-11-19T00:37:49;37.72;;;12.63;;
67867;SDS011;54672;46.096;14.470;2023-11-19T00:40:15;28.73;;;12.75;;
67867;SDS011;54672;46.096;14.470;2023-11-19T00:42:46;30.85;;;12.25;;
67867;SDS011;54672;46.096;14.470;2023-11-19T00:45:12;30.67;;;12.88;;
67867;SDS011;54672;46.096;14.470;2023-11-19T00:47:38;31.23;;;12.00;;
67867;SDS011;54672;46.096;14.470;2023-11-19T00:50:03;30.08;;;11.10;;
67867;SDS011;54672;46.096;14.470;2023-11-19T00:52:30;30.48;;;11.23;;
67867;SDS011;54672;46.096;14.470;2023-11-19T00:54:56;26.10;;;12.13;;
67867;SDS011;54672;46.096;14.470;2023-11-19T00:57:22;26.75;;;11.35;;
67867;SDS011;54672;46.096;14.470;2023-11-19T00:59:49;31.35;;;12.18;;
67867;SDS011;54672;46.096;14.470;2023-11-19T01:02:14;23.27;;;10.55;;
67867;SDS011;54672;46.096;14.470;2023-11-19T01:04:40;25.08;;;10.35;;
67867;SDS011;54672;46.096;14.470;2023-11-19T01:07:05;28.48;;;11.35;;
67867;SDS011;54672;46.096;14.470;2023-11-19T01:09:31;23.90;;;10.15;;
67867;SDS011;54672;46.096;14.470;2023-11-19T01:11:59;26.23;;;10.85;;
67867;SDS011;54672;46.096;14.470;2023-11-19T01:14:25;24.95;;;11.18;;
67867;SDS011;54672;46.096;14.470;2023-11-19T01:16:51;21.58;;;9.77;;
67867;SDS011;54672;46.096;14.470;2023-11-19T01:19:18;18.83;;;10.23;;
67867;SDS011;54672;46.096;14.470;2023-11-19T01:21:44;26.33;;;10.93;;
67867;SDS011;54672;46.096;14.470;2023-11-19T01:24:10;25.90;;;10.98;;
67867;SDS011;54672;46.096;14.470;2023-11-19T01:26:38;25.80;;;11.15;;
67867;SDS011;54672;46.096;14.470;2023-11-19T01:29:03;28.65;;;11.30;;
67867;SDS011;54672;46.096;14.470;2023-11-19T01:31:29;25.42;;;10.88;;
67867;SDS011;54672;46.096;14.470;2023-11-19T01:33:56;26.73;;;11.45;;
67867;SDS011;54672;46.096;14.470;2023-11-19T01:36:22;22.00;;;11.10;;
67867;SDS011;54672;46.096;14.470;2023-11-19T01:38:48;23.30;;;10.40;;
67867;SDS011;54672;46.096;14.470;2023-11-19T01:41:14;23.92;;;10.77;;
67867;SDS011;54672;46.096;14.470;2023-11-19T01:43:39;20.80;;;9.90;;
67867;SDS011;54672;46.096;14.470;2023-11-19T01:46:07;22.23;;;10.45;;
67867;SDS011;54672;46.096;14.470;2023-11-19T01:48:37;22.67;;;11.02;;
67867;SDS011;54672;46.096;14.470;2023-11-19T01:51:09;23.73;;;10.10;;
67867;SDS011;54672;46.096;14.470;2023-11-19T01:53:36;22.13;;;10.25;;
67867;SDS011;54672;46.096;14.470;2023-11-19T01:56:03;26.02;;;11.38;;
67867;SDS011;54672;46.096;14.470;2023-11-19T01:58:30;25.60;;;10.80;;
67867;SDS011;54672;46.096;14.470;2023-11-19T02:00:56;22.23;;;10.63;;
67867;SDS011;54672;46.096;14.470;2023-11-19T02:03:22;24.25;;;11.25;;
67867;SDS011;54672;46.096;14.470;2023-11-19T02:05:51;21.60;;;10.18;;
67867;SDS011;54672;46.096;14.470;2023-11-19T02:08:18;21.80;;;10.25;;
67867;SDS011;54672;46.096;14.470;2023-11-19T02:10:44;25.42;;;10.88;;
67867;SDS011;54672;46.096;14.470;2023-11-19T02:13:09;25.80;;;11.02;;
67867;SDS011;54672;46.096;14.470;2023-11-19T02:15:35;24.30;;;11.23;;
67867;SDS011;54672;46.096;14.470;2023-11-19T02:18:19;27.58;;;10.63;;
67867;SDS011;54672;46.096;14.470;2023-11-19T02:20:49;27.02;;;10.32;;
67867;SDS011;54672;46.096;14.470;2023-11-19T02:23:15;22.00;;;10.20;;
67867;SDS011;54672;46.096;14.470;2023-11-19T02:25:41;27.67;;;10.45;;
67867;SDS011;54672;46.096;14.470;2023-11-19T02:28:07;23.70;;;10.73;;
67867;SDS011;54672;46.096;14.470;2023-11-19T02:30:33;31.13;;;10.70;;
67867;SDS011;54672;46.096;14.470;2023-11-19T02:32:59;23.85;;;11.57;;
67867;SDS011;54672;46.096;14.470;2023-11-19T02:35:28;21.52;;;9.55;;
67867;SDS011;54672;46.096;14.470;2023-11-19T02:37:56;32.13;;;10.70;;
67867;SDS011;54672;46.096;14.470;2023-11-19T02:40:22;22.05;;;10.00;;
67867;SDS011;54672;46.096;14.470;2023-11-19T02:42:53;26.80;;;10.65;;
67867;SDS011;54672;46.096;14.470;2023-11-19T02:45:23;24.13;;;10.38;;
67867;SDS011;54672;46.096;14.470;2023-11-19T02:47:49;24.45;;;9.85;;
67867;SDS011;54672;46.096;14.470;2023-11-19T02:50:15;18.58;;;9.40;;
67867;SDS011;54672;46.096;14.470;2023-11-19T02:52:43;26.88;;;9.98;;
67867;SDS011;54672;46.096;14.470;2023-11-19T02:55:10;26.40;;;10.07;;
67867;SDS011;54672;46.096;14.470;2023-11-19T02:57:40;20.60;;;8.95;;
67867;SDS011;54672;46.096;14.470;2023-11-19T03:00:15;20.13;;;8.93;;
67867;SDS011;54672;46.096;14.470;2023-11-19T03:02:49;20.88;;;9.50;;
67867;SDS011;54672;46.096;14.470;2023-11-19T03:05:24;20.42;;;9.32;;
67867;SDS011;54672;46.096;14.470;2023-11-19T03:07:50;19.20;;;9.25;;
67867;SDS011;54672;46.096;14.470;2023-11-19T03:10:15;25.25;;;9.73;;
67867;SDS011;54672;46.096;14.470;2023-11-19T03:12:41;19.10;;;8.68;;
67867;SDS011;54672;46.096;14.470;2023-11-19T03:15:09;25.17;;;10.73;;
67867;SDS011;54672;46.096;14.470;2023-11-19T03:17:41;21.17;;;9.40;;
67867;SDS011;54672;46.096;14.470;2023-11-19T03:20:08;23.67;;;9.23;;
67867;SDS011;54672;46.096;14.470;2023-11-19T03:22:39;21.25;;;9.05;;
67867;SDS011;54672;46.096;14.470;2023-11-19T03:25:06;21.88;;;9.93;;
67867;SDS011;54672;46.096;14.470;2023-11-19T03:27:34;20.67;;;10.27;;
67867;SDS011;54672;46.096;14.470;2023-11-19T03:30:01;24.50;;;10.07;;
67867;SDS011;54672;46.096;14.470;2023-11-19T03:32:27;30.05;;;10.45;;
67867;SDS011;54672;46.096;14.470;2023-11-19T03:34:52;17.17;;;9.38;;
67867;SDS011;54672;46.096;14.470;2023-11-19T03:37:18;22.25;;;9.73;;
67867;SDS011;54672;46.096;14.470;2023-11-19T03:39:43;25.25;;;10.55;;
67867;SDS011;54672;46.096;14.470;2023-11-19T03:42:08;21.02;;;9.45;;
67867;SDS011;54672;46.096;14.470;2023-11-19T03:44:34;24.45;;;9.65;;
67867;SDS011;54672;46.096;14.470;2023-11-19T03:46:59;25.50;;;10.35;;
67867;SDS011;54672;46.096;14.470;2023-11-19T03:49:24;20.75;;;9.93;;
67867;SDS011;54672;46.096;14.470;2023-11-19T03:51:50;22.45;;;10.77;;
67867;SDS011;54672;46.096;14.470;2023-11-19T03:54:15;19.85;;;9.45;;
67867;SDS011;54672;46.096;14.470;2023-11-19T03:56:41;21.40;;;9.38;;
67867;SDS011;54672;46.096;14.470;2023-11-19T03:59:06;26.60;;;9.82;;
67867;SDS011;54672;46.096;14.470;2023-11-19T04:01:33;19.92;;;8.88;;
67867;SDS011;54672;46.096;14.470;2023-11-19T04:03:58;19.38;;;9.25;;
67867;SDS011;54672;46.096;14.470;2023-11-19T04:06:24;22.85;;;8.70;;
67867;SDS011;54672;46.096;14.470;2023-11-19T04:08:50;17.90;;;8.65;;
67867;SDS011;54672;46.096;14.470;2023-11-19T04:11:16;21.08;;;8.52;;
67867;SDS011;54672;46.096;14.470;2023-11-19T04:13:41;18.33;;;9.02;;
67867;SDS011;54672;46.096;14.470;2023-11-19T04:16:07;16.15;;;8.35;;
67867;SDS011;54672;46.096;14.470;2023-11-19T04:18:32;20.58;;;8.65;;
67867;SDS011;54672;46.096;14.470;2023-11-19T04:20:58;19.48;;;9.20;;
67867;SDS011;54672;46.096;14.470;2023-11-19T04:23:23;13.45;;;6.85;;
67867;SDS011;54672;46.096;14.470;2023-11-19T04:25:50;20.88;;;8.93;;
67867;SDS011;54672;46.096;14.470;2023-11-19T04:28:15;20.85;;;9.27;;
67867;SDS011;54672;46.096;14.470;2023-11-19T04:30:41;17.02;;;8.40;;
67867;SDS011;54672;46.096;14.470;2023-11-19T04:33:06;19.63;;;8.80;;
67867;SDS011;54672;46.096;14.470;2023-11-19T04:35:31;14.55;;;7.65;;
67867;SDS011;54672;46.096;14.470;2023-11-19T04:37:57;19.17;;;9.10;;
67867;SDS011;54672;46.096;14.470;2023-11-19T04:40:22;20.90;;;9.60;;
67867;SDS011;54672;46.096;14.470;2023-11-19T04:42:48;15.77;;;7.70;;
67867;SDS011;54672;46.096;14.470;2023-11-19T04:45:14;19.27;;;8.85;;
67867;SDS011;54672;46.096;14.470;2023-11-19T04:47:41;20.20;;;8.85;;
67867;SDS011;54672;46.096;14.470;2023-11-19T04:50:07;18.80;;;8.75;;
67867;SDS011;54672;46.096;14.470;2023-11-19T04:52:37;19.90;;;8.57;;
67867;SDS011;54672;46.096;14.470;2023-11-19T04:55:05;20.95;;;8.95;;
67867;SDS011;54672;46.096;14.470;2023-11-19T04:57:31;21.55;;;9.20;;
67867;SDS011;54672;46.096;14.470;2023-11-19T04:59:57;20.55;;;8.90;;
67867;SDS011;54672;46.096;14.470;2023-11-19T05:02:23;22.23;;;9.38;;
67867;SDS011;54672;46.096;14.470;2023-11-19T05:04:48;16.60;;;8.05;;
67867;SDS011;54672;46.096;14.470;2023-11-19T05:07:14;24.30;;;8.75;;
67867;SDS011;54672;46.096;14.470;2023-11-19T05:09:39;21.27;;;9.38;;
67867;SDS011;54672;46.096;14.470;2023-11-19T05:12:05;18.55;;;9.27;;
67867;SDS011;54672;46.096;14.470;2023-11-19T05:14:34;19.90;;;8.93;;
67867;SDS011;54672;46.096;14.470;2023-11-19T05:17:00;21.73;;;8.75;;
67867;SDS011;54672;46.096;14.470;2023-11-19T05:19:25;20.58;;;8.85;;
67867;SDS011;54672;46.096;14.470;2023-11-19T05:21:51;18.02;;;8.32;;
67867;SDS011;54672;46.096;14.470;2023-11-19T05:24:17;21.63;;;9.57;;
67867;SDS011;54672;46.096;14.470;2023-11-19T05:26:42;19.85;;;9.57;;
67867;SDS011;54672;46.096;14.470;2023-11-19T05:29:08;19.15;;;9.20;;
67867;SDS011;54672;46.096;14.470;2023-11-19T05:31:34;21.73;;;9.77;;
67867;SDS011;54672;46.096;14.470;2023-11-19T05:33:59;23.63;;;9.23;;
67867;SDS011;54672;46.096;14.470;2023-11-19T05:36:24;17.80;;;8.50;;
67867;SDS011;54672;46.096;14.470;2023-11-19T05:38:50;22.05;;;8.98;;
67867;SDS011;54672;46.096;14.470;2023-11-19T05:41:15;18.38;;;8.75;;
67867;SDS011;54672;46.096;14.470;2023-11-19T05:43:41;21.05;;;8.27;;
67867;SDS011;54672;46.096;14.470;2023-11-19T05:46:07;18.23;;;8.38;;
67867;SDS011;54672;46.096;14.470;2023-11-19T05:48:34;20.13;;;8.82;;
67867;SDS011;54672;46.096;14.470;2023-11-19T05:50:59;19.02;;;9.20;;
67867;SDS011;54672;46.096;14.470;2023-11-19T05:53:25;18.23;;;8.10;;
67867;SDS011;54672;46.096;14.470;2023-11-19T05:55:50;20.98;;;8.75;;
67867;SDS011;54672;46.096;14.470;2023-11-19T05:58:25;18.40;;;8.85;;
67867;SDS011;54672;46.096;14.470;2023-11-19T06:00:53;25.85;;;10.15;;
67867;SDS011;54672;46.096;14.470;2023-11-19T06:03:19;22.08;;;9.73;;
67867;SDS011;54672;46.096;14.470;2023-11-19T06:05:46;19.20;;;8.98;;
67867;SDS011;54672;46.096;14.470;2023-11-19T06:08:12;26.30;;;9.63;;
67867;SDS011;54672;46.096;14.470;2023-11-19T06:10:41;23.85;;;9.73;;
67867;SDS011;54672;46.096;14.470;2023-11-19T06:13:07;22.17;;;9.85;;
67867;SDS011;54672;46.096;14.470;2023-11-19T06:15:35;20.92;;;8.68;;
67867;SDS011;54672;46.096;14.470;2023-11-19T06:18:01;16.27;;;8.10;;
67867;SDS011;54672;46.096;14.470;2023-11-19T06:20:28;25.00;;;9.88;;
67867;SDS011;54672;46.096;14.470;2023-11-19T06:22:54;24.65;;;10.38;;
67867;SDS011;54672;46.096;14.470;2023-11-19T06:25:20;21.63;;;9.82;;
67867;SDS011;54672;46.096;14.470;2023-11-19T06:27:45;21.13;;;9.82;;
67867;SDS011;54672;46.096;14.470;2023-11-19T06:30:11;25.38;;;11.13;;
67867;SDS011;54672;46.096;14.470;2023-11-19T06:32:37;24.65;;;10.70;;
67867;SDS011;54672;46.096;14.470;2023-11-19T06:35:02;20.08;;;9.25;;
67867;SDS011;54672;46.096;14.470;2023-11-19T06:37:29;22.25;;;10.18;;
67867;SDS011;54672;46.096;14.470;2023-11-19T06:39:55;20.92;;;8.63;;
67867;SDS011;54672;46.096;14.470;2023-11-19T06:42:20;18.80;;;8.70;;
67867;SDS011;54672;46.096;14.470;2023-11-19T06:44:46;17.77;;;8.32;;
67867;SDS011;54672;46.096;14.470;2023-11-19T06:47:11;18.98;;;8.88;;
67867;SDS011;54672;46.096;14.470;2023-11-19T06:49:37;19.25;;;9.32;;
67867;SDS011;54672;46.096;14.470;2023-11-19T06:52:02;27.27;;;10.02;;
67867;SDS011;54672;46.096;14.470;2023-11-19T06:54:29;21.52;;;8.77;;
67867;SDS011;54672;46.096;14.470;2023-11-19T06:56:55;17.17;;;8.15;;
67867;SDS011;54672;46.096;14.470;2023-11-19T06:59:22;21.90;;;9.85;;
67867;SDS011;54672;46.096;14.470;2023-11-19T07:01:48;23.65;;;9.45;;
67867;SDS011;54672;46.096;14.470;2023-11-19T07:04:13;20.15;;;9.77;;
67867;SDS011;54672;46.096;14.470;2023-11-19T07:06:39;19.15;;;9.45;;
67867;SDS011;54672;46.096;14.470;2023-11-19T07:09:08;24.13;;;10.48;;
67867;SDS011;54672;46.096;14.470;2023-11-19T07:11:37;31.48;;;11.13;;
67867;SDS011;54672;46.096;14.470;2023-11-19T07:14:04;28.13;;;11.45;;
67867;SDS011;54672;46.096;14.470;2023-11-19T07:16:29;20.67;;;9.45;;
67867;SDS011;54672;46.096;14.470;2023-11-19T07:18:55;21.48;;;9.65;;
67867;SDS011;54672;46.096;14.470;2023-11-19T07:21:21;18.10;;;9.30;;
67867;SDS011;54672;46.096;14.470;2023-11-19T07:23:47;21.23;;;10.13;;
67867;SDS011;54672;46.096;14.470;2023-11-19T07:26:12;21.73;;;8.85;;
67867;SDS011;54672;46.096;14.470;2023-11-19T07:28:37;18.25;;;9.27;;
67867;SDS011;54672;46.096;14.470;2023-11-19T07:31:05;20.83;;;9.98;;
67867;SDS011;54672;46.096;14.470;2023-11-19T07:33:33;19.48;;;10.38;;
67867;SDS011;54672;46.096;14.470;2023-11-19T07:35:58;21.95;;;10.13;;
67867;SDS011;54672;46.096;14.470;2023-11-19T07:38:24;24.95;;;9.88;;
67867;SDS011;54672;46.096;14.470;2023-11-19T07:40:49;21.48;;;9.25;;
67867;SDS011;54672;46.096;14.470;2023-11-19T07:43:15;17.77;;;8.68;;
67867;SDS011;54672;46.096;14.470;2023-11-19T07:45:41;22.50;;;10.13;;
67867;SDS011;54672;46.096;14.470;2023-11-19T07:48:08;20.80;;;9.32;;
67867;SDS011;54672;46.096;14.470;2023-11-19T07:50:34;19.73;;;9.35;;
67867;SDS011;54672;46.096;14.470;2023-11-19T07:52:59;17.20;;;8.73;;
67867;SDS011;54672;46.096;14.470;2023-11-19T07:55:25;24.17;;;9.75;;
67867;SDS011;54672;46.096;14.470;2023-11-19T07:57:52;18.35;;;10.32;;
67867;SDS011;54672;46.096;14.470;2023-11-19T08:00:17;25.27;;;10.95;;
67867;SDS011;54672;46.096;14.470;2023-11-19T08:02:44;17.73;;;9.52;;
67867;SDS011;54672;46.096;14.470;2023-11-19T08:05:10;21.15;;;10.82;;
67867;SDS011;54672;46.096;14.470;2023-11-19T08:07:36;24.50;;;10.93;;
67867;SDS011;54672;46.096;14.470;2023-11-19T08:10:02;22.17;;;9.00;;
67867;SDS011;54672;46.096;14.470;2023-11-19T08:12:27;23.83;;;10.60;;
67867;SDS011;54672;46.096;14.470;2023-11-19T08:14:53;22.83;;;9.82;;
67867;SDS011;54672;46.096;14.470;2023-11-19T08:17:18;16.65;;;8.98;;
67867;SDS011;54672;46.096;14.470;2023-11-19T08:19:44;19.05;;;10.07;;
67867;SDS011;54672;46.096;14.470;2023-11-19T08:22:09;26.05;;;11.55;;
67867;SDS011;54672;46.096;14.470;2023-11-19T08:24:35;21.60;;;11.57;;
67867;SDS011;54672;46.096;14.470;2023-11-19T08:27:00;19.25;;;10.20;;
67867;SDS011;54672;46.096;14.470;2023-11-19T08:29:26;20.63;;;11.00;;
67867;SDS011;54672;46.096;14.470;2023-11-19T08:31:52;19.58;;;9.60;;
67867;SDS011;54672;46.096;14.470;2023-11-19T08:34:18;33.97;;;14.45;;
67867;SDS011;54672;46.096;14.470;2023-11-19T08:36:43;22.42;;;11.77;;
67867;SDS011;54672;46.096;14.470;2023-11-19T08:39:09;25.40;;;11.25;;
67867;SDS011;54672;46.096;14.470;2023-11-19T08:41:34;22.85;;;10.95;;
67867;SDS011;54672;46.096;14.470;2023-11-19T08:44:00;25.20;;;10.60;;
67867;SDS011;54672;46.096;14.470;2023-11-19T08:46:25;19.13;;;10.48;;
67867;SDS011;54672;46.096;14.470;2023-11-19T08:48:51;24.15;;;10.80;;
67867;SDS011;54672;46.096;14.470;2023-11-19T08:51:16;18.55;;;9.50;;
67867;SDS011;54672;46.096;14.470;2023-11-19T08:53:42;23.80;;;10.77;;
67867;SDS011;54672;46.096;14.470;2023-11-19T08:56:07;21.77;;;10.20;;
67867;SDS011;54672;46.096;14.470;2023-11-19T08:58:33;24.73;;;11.15;;
67867;SDS011;54672;46.096;14.470;2023-11-19T09:00:58;20.67;;;11.13;;
67867;SDS011;54672;46.096;14.470;2023-11-19T09:03:24;20.23;;;10.48;;
67867;SDS011;54672;46.096;14.470;2023-11-19T09:05:51;18.90;;;9.48;;
67867;SDS011;54672;46.096;14.470;2023-11-19T09:08:17;21.23;;;10.15;;
67867;SDS011;54672;46.096;14.470;2023-11-19T09:10:42;24.13;;;10.90;;
67867;SDS011;54672;46.096;14.470;2023-11-19T09:13:08;21.73;;;10.40;;
67867;SDS011;54672;46.096;14.470;2023-11-19T09:15:33;23.33;;;10.50;;
67867;SDS011;54672;46.096;14.470;2023-11-19T09:17:58;21.13;;;10.35;;
67867;SDS011;54672;46.096;14.470;2023-11-19T09:20:24;20.55;;;10.15;;
67867;SDS011;54672;46.096;14.470;2023-11-19T09:22:49;21.40;;;10.00;;
67867;SDS011;54672;46.096;14.470;2023-11-19T09:25:16;17.17;;;8.55;;
67867;SDS011;54672;46.096;14.470;2023-11-19T09:27:42;17.45;;;9.05;;
67867;SDS011;54672;46.096;14.470;2023-11-19T09:30:10;18.27;;;9.07;;
67867;SDS011;54672;46.096;14.470;2023-11-19T09:32:36;18.02;;;9.32;;
67867;SDS011;54672;46.096;14.470;2023-11-19T09:35:03;24.33;;;10.75;;
67867;SDS011;54672;46.096;14.470;2023-11-19T09:37:28;24.42;;;10.13;;
67867;SDS011;54672;46.096;14.470;2023-11-19T09:39:54;16.40;;;8.18;;
67867;SDS011;54672;46.096;14.470;2023-11-19T09:42:19;17.88;;;9.40;;
67867;SDS011;54672;46.096;14.470;2023-11-19T09:44:45;24.55;;;10.25;;
67867;SDS011;54672;46.096;14.470;2023-11-19T09:47:12;22.40;;;9.82;;
67867;SDS011;54672;46.096;14.470;2023-11-19T09:49:39;18.80;;;9.98;;
67867;SDS011;54672;46.096;14.470;2023-11-19T09:52:04;16.70;;;8.52;;
67867;SDS011;54672;46.096;14.470;2023-11-19T09:54:30;19.52;;;9.55;;
67867;SDS011;54672;46.096;14.470;2023-11-19T09:56:56;17.52;;;9.23;;
67867;SDS011;54672;46.096;14.470;2023-11-19T09:59:29;17.60;;;8.68;;
67867;SDS011;54672;46.096;14.470;2023-11-19T10:01:55;14.63;;;8.15;;
67867;SDS011;54672;46.096;14.470;2023-11-19T10:04:21;19.27;;;8.00;;
67867;SDS011;54672;46.096;14.470;2023-11-19T10:06:48;15.95;;;8.15;;
67867;SDS011;54672;46.096;14.470;2023-11-19T10:09:16;13.18;;;7.68;;
67867;SDS011;54672;46.096;14.470;2023-11-19T10:11:41;14.18;;;7.35;;
67867;SDS011;54672;46.096;14.470;2023-11-19T10:14:07;20.08;;;9.25;;
67867;SDS011;54672;46.096;14.470;2023-11-19T10:16:34;23.27;;;10.68;;
67867;SDS011;54672;46.096;14.470;2023-11-19T10:19:00;23.10;;;10.82;;
67867;SDS011;54672;46.096;14.470;2023-11-19T10:21:25;22.40;;;11.02;;
67867;SDS011;54672;46.096;14.470;2023-11-19T10:23:53;21.05;;;10.40;;
67867;SDS011;54672;46.096;14.470;2023-11-19T10:26:22;24.15;;;10.93;;
67867;SDS011;54672;46.096;14.470;2023-11-19T10:28:48;22.38;;;9.80;;
67867;SDS011;54672;46.096;14.470;2023-11-19T10:31:14;22.60;;;11.15;;
67867;SDS011;54672;46.096;14.470;2023-11-19T10:33:40;21.90;;;11.00;;
67867;SDS011;54672;46.096;14.470;2023-11-19T10:36:06;23.23;;;11.27;;
67867;SDS011;54672;46.096;14.470;2023-11-19T10:38:32;25.27;;;11.70;;
67867;SDS011;54672;46.096;14.470;2023-11-19T10:40:58;20.88;;;11.55;;
67867;SDS011;54672;46.096;14.470;2023-11-19T10:43:24;23.38;;;11.43;;
67867;SDS011;54672;46.096;14.470;2023-11-19T10:45:50;27.98;;;12.85;;
67867;SDS011;54672;46.096;14.470;2023-11-19T10:48:17;23.70;;;11.40;;
67867;SDS011;54672;46.096;14.470;2023-11-19T10:50:43;23.88;;;11.65;;
67867;SDS011;54672;46.096;14.470;2023-11-19T10:53:10;23.48;;;11.35;;
67867;SDS011;54672;46.096;14.470;2023-11-19T10:55:40;21.67;;;10.80;;
67867;SDS011;54672;46.096;14.470;2023-11-19T10:58:06;20.85;;;10.43;;
67867;SDS011;54672;46.096;14.470;2023-11-19T11:03:17;19.20;;;10.40;;
67867;SDS011;54672;46.096;14.470;2023-11-19T11:05:47;24.80;;;11.15;;
67867;SDS011;54672;46.096;14.470;2023-11-19T11:08:13;24.83;;;11.27;;
67867;SDS011;54672;46.096;14.470;2023-11-19T11:10:42;22.80;;;10.90;;
67867;SDS011;54672;46.096;14.470;2023-11-19T11:13:09;20.52;;;11.48;;
67867;SDS011;54672;46.096;14.470;2023-11-19T11:15:37;24.55;;;11.18;;
67867;SDS011;54672;46.096;14.470;2023-11-19T11:18:02;23.48;;;12.25;;
67867;SDS011;54672;46.096;14.470;2023-11-19T11:20:31;24.92;;;11.40;;
67867;SDS011;54672;46.096;14.470;2023-11-19T11:26:09;21.15;;;10.52;;
67867;SDS011;54672;46.096;14.470;2023-11-19T11:28:47;24.90;;;11.30;;
67867;SDS011;54672;46.096;14.470;2023-11-19T11:39:24;21.83;;;11.07;;
67867;SDS011;54672;46.096;14.470;2023-11-19T11:50:11;21.02;;;9.73;;
67867;SDS011;54672;46.096;14.470;2023-11-19T11:55:28;19.95;;;10.13;;
67867;SDS011;54672;46.096;14.470;2023-11-19T11:57:54;21.37;;;10.47;;
67867;SDS011;54672;46.096;14.470;2023-11-19T12:02:55;19.08;;;10.07;;
67867;SDS011;54672;46.096;14.470;2023-11-19T12:05:21;20.48;;;10.82;;
67867;SDS011;54672;46.096;14.470;2023-11-19T12:07:57;24.90;;;11.75;;
67867;SDS011;54672;46.096;14.470;2023-11-19T12:10:26;20.50;;;9.32;;
67867;SDS011;54672;46.096;14.470;2023-11-19T12:12:59;17.58;;;9.55;;
67867;SDS011;54672;46.096;14.470;2023-11-19T12:15:26;22.52;;;10.38;;
67867;SDS011;54672;46.096;14.470;2023-11-19T12:17:52;26.88;;;10.90;;
67867;SDS011;54672;46.096;14.470;2023-11-19T12:20:19;23.58;;;10.82;;
67867;SDS011;54672;46.096;14.470;2023-11-19T12:22:47;23.33;;;11.20;;
67867;SDS011;54672;46.096;14.470;2023-11-19T12:25:14;23.05;;;11.43;;
67867;SDS011;54672;46.096;14.470;2023-11-19T12:27:50;20.02;;;11.18;;
67867;SDS011;54672;46.096;14.470;2023-11-19T12:30:17;25.05;;;11.48;;
67867;SDS011;54672;46.096;14.470;2023-11-19T12:32:50;23.63;;;12.07;;
67867;SDS011;54672;46.096;14.470;2023-11-19T12:35:15;20.98;;;11.38;;
67867;SDS011;54672;46.096;14.470;2023-11-19T12:37:41;25.25;;;12.18;;
67867;SDS011;54672;46.096;14.470;2023-11-19T12:42:43;23.27;;;12.20;;
67867;SDS011;54672;46.096;14.470;2023-11-19T12:45:16;20.02;;;11.65;;
67867;SDS011;54672;46.096;14.470;2023-11-19T12:47:45;23.40;;;12.38;;
67867;SDS011;54672;46.096;14.470;2023-11-19T12:50:14;23.20;;;11.77;;
67867;SDS011;54672;46.096;14.470;2023-11-19T12:52:42;24.45;;;12.38;;
67867;SDS011;54672;46.096;14.470;2023-11-19T12:55:24;22.70;;;11.98;;
67867;SDS011;54672;46.096;14.470;2023-11-19T12:57:52;22.52;;;11.82;;
67867;SDS011;54672;46.096;14.470;2023-11-19T13:00:18;25.65;;;12.57;;
67867;SDS011;54672;46.096;14.470;2023-11-19T13:07:51;24.17;;;11.60;;
67867;SDS011;54672;46.096;14.470;2023-11-19T13:10:30;21.55;;;11.40;;
67867;SDS011;54672;46.096;14.470;2023-11-19T13:13:14;18.50;;;10.98;;
67867;SDS011;54672;46.096;14.470;2023-11-19T13:15:40;19.40;;;11.45;;
67867;SDS011;54672;46.096;14.470;2023-11-19T13:18:06;19.02;;;10.13;;
67867;SDS011;54672;46.096;14.470;2023-11-19T13:20:32;21.05;;;10.90;;
67867;SDS011;54672;46.096;14.470;2023-11-19T13:22:59;22.35;;;10.20;;
67867;SDS011;54672;46.096;14.470;2023-11-19T13:25:28;21.98;;;10.38;;
67867;SDS011;54672;46.096;14.470;2023-11-19T13:27:54;19.77;;;10.82;;
67867;SDS011;54672;46.096;14.470;2023-11-19T13:30:21;22.13;;;10.30;;
67867;SDS011;54672;46.096;14.470;2023-11-19T13:32:47;20.20;;;9.73;;
67867;SDS011;54672;46.096;14.470;2023-11-19T13:35:13;25.58;;;10.88;;
67867;SDS011;54672;46.096;14.470;2023-11-19T13:37:39;18.35;;;9.68;;
67867;SDS011;54672;46.096;14.470;2023-11-19T13:40:06;18.23;;;9.77;;
67867;SDS011;54672;46.096;14.470;2023-11-19T13:42:32;19.02;;;9.50;;
67867;SDS011;54672;46.096;14.470;2023-11-19T13:44:58;17.85;;;8.95;;
67867;SDS011;54672;46.096;14.470;2023-11-19T13:47:23;16.98;;;9.07;;
67867;SDS011;54672;46.096;14.470;2023-11-19T13:49:49;21.58;;;9.88;;
67867;SDS011;54672;46.096;14.470;2023-11-19T13:52:15;15.32;;;8.00;;
67867;SDS011;54672;46.096;14.470;2023-11-19T13:54:40;16.30;;;8.57;;
67867;SDS011;54672;46.096;14.470;2023-11-19T13:57:06;17.13;;;9.10;;
67867;SDS011;54672;46.096;14.470;2023-11-19T13:59:31;15.45;;;9.52;;
67867;SDS011;54672;46.096;14.470;2023-11-19T14:01:59;16.23;;;8.68;;
67867;SDS011;54672;46.096;14.470;2023-11-19T14:04:25;17.75;;;9.30;;
67867;SDS011;54672;46.096;14.470;2023-11-19T14:06:51;18.23;;;9.73;;
67867;SDS011;54672;46.096;14.470;2023-11-19T14:09:16;21.38;;;9.50;;
67867;SDS011;54672;46.096;14.470;2023-11-19T14:11:42;18.55;;;9.88;;
67867;SDS011;54672;46.096;14.470;2023-11-19T14:14:08;22.08;;;10.07;;
67867;SDS011;54672;46.096;14.470;2023-11-19T14:16:33;18.67;;;9.70;;
67867;SDS011;54672;46.096;14.470;2023-11-19T14:18:59;21.88;;;11.15;;
67867;SDS011;54672;46.096;14.470;2023-11-19T14:21:24;18.88;;;9.45;;
67867;SDS011;54672;46.096;14.470;2023-11-19T14:23:51;19.65;;;11.00;;
67867;SDS011;54672;46.096;14.470;2023-11-19T14:26:20;21.05;;;10.27;;
67867;SDS011;54672;46.096;14.470;2023-11-19T14:28:45;19.77;;;10.40;;
67867;SDS011;54672;46.096;14.470;2023-11-19T14:31:10;18.52;;;10.63;;
67867;SDS011;54672;46.096;14.470;2023-11-19T14:33:36;22.17;;;10.63;;
67867;SDS011;54672;46.096;14.470;2023-11-19T14:36:04;23.55;;;11.63;;
67867;SDS011;54672;46.096;14.470;2023-11-19T14:38:31;19.85;;;10.73;;
67867;SDS011;54672;46.096;14.470;2023-11-19T14:40:58;21.98;;;11.07;;
67867;SDS011;54672;46.096;14.470;2023-11-19T14:43:24;15.25;;;7.88;;
67867;SDS011;54672;46.096;14.470;2023-11-19T14:45:50;19.58;;;10.30;;